createdAt,value
2019-05-09T00:00:14.967Z,10.13
2019-05-09T00:05:18.345Z,10.10
2019-05-09T00:10:38.058Z,10.11
2019-05-09T00:15:27.087Z,10.07
2019-05-09T00:20:35.111Z,10.01
2019-05-09T00:25:38.612Z,10.30
2019-05-09T00:30:55.525Z,10.22
2019-05-09T00:35:58.930Z,10.27
2019-05-09T00:41:03.869Z,10.29
2019-05-09T00:46:10.051Z,10.24
2019-05-09T00:51:14.096Z,10.22
2019-05-09T00:56:17.679Z,10.21
2019-05-09T01:01:21.061Z,10.19
2019-05-09T01:06:24.446Z,10.28
2019-05-09T01:11:27.837Z,10.28
2019-05-09T01:16:33.499Z,10.25
2019-05-09T01:21:36.534Z,10.23
2019-05-09T01:26:39.959Z,10.22
2019-05-09T01:31:43.724Z,10.12
2019-05-09T01:37:05.116Z,10.07
2019-05-09T01:42:08.657Z,9.99
2019-05-09T01:47:13.722Z,9.92
2019-05-09T01:52:17.223Z,9.94
2019-05-09T01:57:20.651Z,9.94
2019-05-09T02:02:24.059Z,9.80
2019-05-09T02:07:27.469Z,9.77
2019-05-09T02:12:30.838Z,9.71
2019-05-09T02:17:55.806Z,9.69
2019-05-09T02:22:46.833Z,9.55
2019-05-09T02:27:50.215Z,9.47
2019-05-09T02:32:54.755Z,9.53
2019-05-09T02:37:58.784Z,9.43
2019-05-09T02:43:02.412Z,9.38
2019-05-09T02:48:05.819Z,9.30
2019-05-09T02:53:09.468Z,9.23
2019-05-09T02:58:14.503Z,9.20
2019-05-09T03:03:23.565Z,9.16
2019-05-09T03:08:29.523Z,9.16
2019-05-09T03:13:32.060Z,9.05
2019-05-09T03:18:35.494Z,8.97
2019-05-09T03:23:39.189Z,8.89
2019-05-09T03:28:59.435Z,8.86
2019-05-09T03:34:02.905Z,8.82
2019-05-09T03:39:09.108Z,8.80
2019-05-09T03:44:12.489Z,8.71
2019-05-09T03:49:18.069Z,8.70
2019-05-09T03:54:21.527Z,8.71
2019-05-09T03:59:24.919Z,8.62
2019-05-09T04:04:28.394Z,8.55
2019-05-09T04:09:31.774Z,8.48
2019-05-09T04:14:37.539Z,8.52
2019-05-09T04:19:41.079Z,8.42
2019-05-09T04:24:44.732Z,8.42
2019-05-09T04:29:48.488Z,8.51
2019-05-09T04:34:51.835Z,8.39
2019-05-09T04:39:59.499Z,8.39
2019-05-09T04:45:03.546Z,8.30
2019-05-09T04:50:07.617Z,8.38
2019-05-09T04:55:11.862Z,8.53
2019-05-09T05:00:18.414Z,8.43
2019-05-09T05:05:21.874Z,8.44
2019-05-09T05:10:27.286Z,8.47
2019-05-09T05:15:30.342Z,8.54
2019-05-09T05:20:33.988Z,8.65
2019-05-09T05:25:38.281Z,8.66
2019-05-09T05:30:41.739Z,8.69
2019-05-09T05:35:48.025Z,8.69
2019-05-09T05:40:51.455Z,8.74
2019-05-09T05:45:58.461Z,8.74
2019-05-09T05:51:01.711Z,8.77
2019-05-09T05:56:05.481Z,8.71
2019-05-09T06:01:08.859Z,8.86
2019-05-09T06:06:12.241Z,8.89
2019-05-09T06:11:17.711Z,8.83
2019-05-09T06:16:22.414Z,8.89
2019-05-09T06:21:28.405Z,9.11
2019-05-09T06:26:37.347Z,9.18
2019-05-09T06:31:40.863Z,9.21
2019-05-09T06:36:44.242Z,9.16
2019-05-09T06:41:48.476Z,9.32
2019-05-09T06:46:53.661Z,9.30
2019-05-09T06:51:58.034Z,9.42
2019-05-09T06:57:01.647Z,9.43
2019-05-09T07:02:08.211Z,9.52
2019-05-09T07:07:19.222Z,9.68
2019-05-09T07:12:22.609Z,9.95
2019-05-09T07:17:31.671Z,10.19
2019-05-09T07:22:35.483Z,10.42
2019-05-09T07:27:40.501Z,10.53
2019-05-09T07:32:48.752Z,10.39
2019-05-09T07:37:52.328Z,10.64
2019-05-09T07:42:58.190Z,10.77
2019-05-09T07:48:00.824Z,11.46
2019-05-09T07:53:04.199Z,11.78
2019-05-09T07:58:08.204Z,11.95
2019-05-09T08:03:13.237Z,12.52
2019-05-09T08:08:18.539Z,12.23
2019-05-09T08:13:22.177Z,11.80
2019-05-09T08:18:28.020Z,12.00
2019-05-09T08:23:30.944Z,12.00
2019-05-09T08:28:34.318Z,11.54
2019-05-09T08:33:38.273Z,12.22
2019-05-09T08:38:42.109Z,12.20
2019-05-09T08:43:48.191Z,12.04
2019-05-09T08:48:50.812Z,12.01
2019-05-09T08:53:54.286Z,11.80
2019-05-09T08:59:01.782Z,12.04
2019-05-09T09:04:02.772Z,11.88
2019-05-09T09:09:08.086Z,12.05
2019-05-09T09:14:11.642Z,12.29
2019-05-09T09:19:15.047Z,12.35
2019-05-09T09:24:18.383Z,12.56
2019-05-09T09:29:21.760Z,12.51
2019-05-09T09:34:27.103Z,12.32
2019-05-09T09:39:31.356Z,12.47
2019-05-09T09:44:34.960Z,12.72
2019-05-09T09:49:38.912Z,12.62
2019-05-09T09:54:42.294Z,12.30
2019-05-09T09:59:48.359Z,12.52
2019-05-09T10:04:52.083Z,12.64
2019-05-09T10:09:55.437Z,13.07
2019-05-09T10:15:08.341Z,13.60
2019-05-09T10:20:13.252Z,13.71
2019-05-09T10:25:18.256Z,14.15
2019-05-09T10:30:28.868Z,14.38
2019-05-09T10:35:32.227Z,13.91
2019-05-09T10:40:35.578Z,14.08
2019-05-09T10:45:43.553Z,14.03
2019-05-09T10:50:53.876Z,14.56
2019-05-09T10:55:51.977Z,14.31
2019-05-09T11:00:55.307Z,13.99
2019-05-09T11:05:58.704Z,13.79
2019-05-09T11:11:05.706Z,14.00
2019-05-09T11:16:07.712Z,14.51
2019-05-09T11:21:11.317Z,14.60
2019-05-09T11:26:14.731Z,14.73
2019-05-09T11:31:18.822Z,14.45
2019-05-09T11:36:22.420Z,14.48
2019-05-09T11:41:29.075Z,14.50
2019-05-09T11:46:30.844Z,14.22
2019-05-09T11:51:34.186Z,14.52
2019-05-09T11:56:38.373Z,14.40
2019-05-09T12:01:42.199Z,14.59
2019-05-09T12:06:45.670Z,14.82
2019-05-09T12:11:49.014Z,14.92
2019-05-09T12:16:52.452Z,14.70
2019-05-09T12:21:58.118Z,14.49
2019-05-09T12:27:03.121Z,14.16
2019-05-09T12:32:08.581Z,14.15
2019-05-09T12:37:11.197Z,14.22
2019-05-09T12:42:14.630Z,14.07
2019-05-09T12:47:19.027Z,14.19
2019-05-09T12:52:22.515Z,14.28
2019-05-09T12:57:28.662Z,12.87
2019-05-09T13:02:30.931Z,12.49
2019-05-09T13:07:34.283Z,12.44
2019-05-09T13:12:38.797Z,12.67
2019-05-09T13:17:48.051Z,12.70
2019-05-09T13:22:51.796Z,12.70
2019-05-09T13:27:55.187Z,13.33
2019-05-09T13:32:58.536Z,14.50
2019-05-09T13:38:01.905Z,14.54
2019-05-09T13:43:05.337Z,15.14
2019-05-09T13:48:27.079Z,15.31
2019-05-09T13:53:19.198Z,15.39
2019-05-09T13:58:22.125Z,14.49
2019-05-09T14:03:28.139Z,14.82
2019-05-09T14:08:31.574Z,14.49
2019-05-09T14:13:34.942Z,14.56
2019-05-09T14:18:38.609Z,14.87
2019-05-09T14:23:51.135Z,15.69
2019-05-09T14:28:49.053Z,15.26
2019-05-09T14:33:52.222Z,15.04
2019-05-09T14:38:57.934Z,14.85
2019-05-09T14:44:00.777Z,15.21
2019-05-09T14:49:04.105Z,15.18
2019-05-09T14:54:08.381Z,15.15
2019-05-09T14:59:11.850Z,15.75
2019-05-09T15:04:15.284Z,15.47
2019-05-09T15:09:19.032Z,14.86
2019-05-09T15:14:22.564Z,14.53
2019-05-09T15:19:28.576Z,14.67
2019-05-09T15:24:30.974Z,14.63
2019-05-09T15:29:34.383Z,14.55
2019-05-09T15:34:38.291Z,14.29
2019-05-09T15:39:41.743Z,14.14
2019-05-09T15:44:47.521Z,13.23
2019-05-09T15:49:50.118Z,11.52
2019-05-09T15:54:53.511Z,11.11
2019-05-09T15:59:58.839Z,10.63
2019-05-09T16:05:02.088Z,10.21
2019-05-09T16:10:08.514Z,10.19
2019-05-09T16:15:12.040Z,11.19
2019-05-09T16:20:37.417Z,10.58
2019-05-09T16:25:38.786Z,11.44
2019-05-09T16:30:42.198Z,10.70
2019-05-09T16:35:45.557Z,10.51
2019-05-09T16:40:48.927Z,11.11
2019-05-09T16:45:52.966Z,11.08
2019-05-09T16:51:03.329Z,10.78
2019-05-09T16:56:02.107Z,10.94
2019-05-09T17:01:08.147Z,11.39
2019-05-09T17:06:10.765Z,11.36
2019-05-09T17:11:14.128Z,11.38
2019-05-09T17:16:17.908Z,10.88
2019-05-09T17:21:34.776Z,10.96
2019-05-09T17:26:38.306Z,10.98
2019-05-09T17:31:41.715Z,11.01
2019-05-09T17:36:45.036Z,10.82
2019-05-09T17:41:48.384Z,10.85
2019-05-09T17:46:51.793Z,10.75
2019-05-09T17:51:55.414Z,10.81
2019-05-09T17:56:58.829Z,10.73
2019-05-09T18:02:02.476Z,10.66
2019-05-09T18:07:08.531Z,10.68
2019-05-09T18:12:11.118Z,10.62
2019-05-09T18:17:14.485Z,10.58
2019-05-09T18:22:18.622Z,10.60
2019-05-09T18:27:22.195Z,10.59
2019-05-09T18:32:43.490Z,10.63
2019-05-09T18:37:48.100Z,10.70
2019-05-09T18:42:51.847Z,10.74
2019-05-09T18:47:57.840Z,10.81
2019-05-09T18:53:00.437Z,10.84
2019-05-09T18:58:03.856Z,10.86
2019-05-09T19:03:07.190Z,10.92
2019-05-09T19:08:10.613Z,10.93
2019-05-09T19:13:14.034Z,10.95
2019-05-09T19:18:30.981Z,10.93
2019-05-09T19:23:34.333Z,10.85
2019-05-09T19:28:37.778Z,10.77
2019-05-09T19:33:41.102Z,10.79
2019-05-09T19:38:44.449Z,10.74
2019-05-09T19:43:47.785Z,10.71
2019-05-09T19:48:51.134Z,10.71
2019-05-09T19:53:54.480Z,10.70
2019-05-09T19:58:58.013Z,10.79
2019-05-09T20:04:01.379Z,10.80
2019-05-09T20:09:08.406Z,10.75
2019-05-09T20:14:16.414Z,10.67
2019-05-09T20:19:19.823Z,10.64
2019-05-09T20:24:23.286Z,10.56
2019-05-09T20:29:29.786Z,10.46
2019-05-09T20:34:31.831Z,10.35
2019-05-09T20:39:35.381Z,10.38
2019-05-09T20:44:38.914Z,10.37
2019-05-09T20:49:42.504Z,10.37
2019-05-09T20:54:45.980Z,10.32
2019-05-09T20:59:49.557Z,10.30
2019-05-09T21:04:53.091Z,10.31
2019-05-09T21:10:04.631Z,10.26
2019-05-09T21:15:08.720Z,10.29
2019-05-09T21:20:12.263Z,10.34
2019-05-09T21:25:15.974Z,10.36
2019-05-09T21:30:20.562Z,10.40
2019-05-09T21:35:23.896Z,10.39
2019-05-09T21:40:27.358Z,10.47
2019-05-09T21:45:30.687Z,10.44
2019-05-09T21:50:34.101Z,10.48
2019-05-09T21:55:37.524Z,10.48
2019-05-09T22:00:41.560Z,10.43
2019-05-09T22:05:45.019Z,10.35
2019-05-09T22:10:48.439Z,10.27
2019-05-09T22:15:51.949Z,10.18
2019-05-09T22:20:55.355Z,10.22
2019-05-09T22:25:58.891Z,10.27
2019-05-09T22:31:02.225Z,10.29
2019-05-09T22:36:05.570Z,10.37
2019-05-09T22:41:08.927Z,10.34
2019-05-09T22:46:12.340Z,10.44
2019-05-09T22:51:15.755Z,10.45
2019-05-09T22:56:19.126Z,10.46
2019-05-09T23:01:22.567Z,10.41
2019-05-09T23:06:25.907Z,10.47
2019-05-09T23:11:29.307Z,10.51
2019-05-09T23:16:34.464Z,10.56
2019-05-09T23:21:37.932Z,10.57
2019-05-09T23:26:41.348Z,10.59
2019-05-09T23:31:48.834Z,10.57
2019-05-09T23:36:52.196Z,10.57
2019-05-09T23:41:55.543Z,10.54
2019-05-09T23:46:59.065Z,10.58
2019-05-09T23:52:02.459Z,10.56
2019-05-09T23:57:24.606Z,10.56
